Terminal Aerodrome Forecast
Issued by NWS Chicago, IL

Home | Current Version | Previous Version | Graphics & Text | Print | Product List | Glossary On
Versions: 1 2 3 4 5 6 7 8 9 10 11 12 13 14 15 16 17 18 19 20 21 22 23 24 25 26 27 28 29 30 31 32 33 34 35
000
FTUS43 KLOT 311700
TAFRFD
TAF
KRFD 311724Z 3118/0118 20008KT P6SM SCT030
     FM010200 17006KT P6SM BKN120
     FM011200 19012KT P6SM SCT040 BKN080 PROB30 0112/0115 4SM -TSRA
      BKN030CB
     FM011600 23014G22KT P6SM SCT040=

USA.gov is the U.S. government's official web portal to all federal, state and local government web resources and services.